Main page
METAR-TAF:

METAR-TAF

Airports :

Clermont-Ferrand Auvergne Airport

Clermont-Ferrand, France

latitude: 45-47N, longitude: 003-10E, elevation: 332 m

Current weather observation

The report was made 26 minutes ago, at 05:30 UTC
Wind 1 kt from variable directions
Temperature 17°C
Humidity 63%
Pressure 1018 hPa
Visibility 10 km or more
no clouds below 1500 m and no cumulonimbus

METAR: LFLC 250530Z AUTO VRB01KT CAVOK 17/10 Q1018 NOSIG

Time: 07:56 (05:56 UTC)

Forecast

The report was made 3 hours and 56 minutes ago, at 02:00 UTC
Forecast valid from 25 at 03 UTC to 26 at 03 UTC
Wind 3 kt from variable directions
Visibility 10 km or more
no clouds below 1500 m and no cumulonimbus
Temporary
from 25 at 03 UTC to 25 at 07 UTC
Wind 5 kt from the South
Becoming
from 25 at 09 UTC to 25 at 11 UTC
Wind 6 kt from the Northeast
Becoming
from 25 at 19 UTC to 25 at 21 UTC
Wind 3 kt from variable directions

TAF: LFLC 250200Z 2503/2603 VRB03KT CAVOK TEMPO 2503/2507 18005KT BECMG 2509/2511 05006KT BECMG 2519/2521 VRB03KT

Weather observations and forecasts of more than 4000 airports (METAR and TAF reports).

The available stations are represented by yellow and red dots on the map.

Hover mouse over dot to see the name of the station.

Then click to see weather observations and forecasts.

To change the map : click on the green buttons with a black cross to zoom in, on the green button with a dash to zoom out, or on the green arrows for adjacent maps.


METAR-TAF: